createdAt,value
2023-05-03T00:01:45.944Z,2.85
2023-05-03T00:04:15.945Z,2.89
2023-05-03T00:06:46.274Z,2.94
2023-05-03T00:09:16.164Z,2.95
2023-05-03T00:11:48.374Z,2.98
2023-05-03T00:14:17.938Z,2.91
2023-05-03T00:16:47.478Z,2.92
2023-05-03T00:19:30.511Z,2.86
2023-05-03T00:22:00.817Z,2.79
2023-05-03T00:24:30.434Z,2.76
2023-05-03T00:27:02.609Z,2.76
2023-05-03T00:29:32.144Z,2.77
2023-05-03T00:32:02.663Z,2.72
2023-05-03T00:34:34.901Z,2.70
2023-05-03T00:37:04.507Z,2.65
2023-05-03T00:39:34.308Z,2.66
2023-05-03T00:42:07.038Z,2.54
2023-05-03T00:44:36.501Z,2.53
2023-05-03T00:47:07.156Z,2.49
2023-05-03T00:49:37.113Z,2.55
2023-05-03T00:52:07.123Z,2.55
2023-05-03T00:54:38.043Z,2.57
2023-05-03T00:57:10.476Z,2.55
2023-05-03T00:59:40.280Z,2.54
2023-05-03T01:02:10.140Z,2.49
2023-05-03T01:04:42.404Z,2.48
2023-05-03T01:07:18.750Z,2.44
2023-05-03T01:09:58.265Z,2.48
2023-05-03T01:12:36.684Z,2.47
2023-05-03T01:15:11.743Z,2.40
2023-05-03T01:17:42.971Z,2.41
2023-05-03T01:20:16.395Z,2.43
2023-05-03T01:22:49.909Z,2.38
2023-05-03T01:25:22.312Z,2.33
2023-05-03T01:27:51.772Z,2.40
2023-05-03T01:30:22.033Z,2.34
2023-05-03T01:32:57.985Z,2.35
2023-05-03T01:35:32.883Z,2.31
2023-05-03T01:38:02.868Z,2.25
2023-05-03T01:40:35.572Z,2.27
2023-05-03T01:43:06.089Z,2.27
2023-05-03T01:45:35.735Z,2.27
2023-05-03T01:48:05.300Z,2.27
2023-05-03T01:50:34.828Z,2.31
2023-05-03T01:53:04.349Z,2.41
2023-05-03T01:55:36.790Z,2.43
2023-05-03T01:58:06.355Z,2.42
2023-05-03T02:00:35.883Z,2.30
2023-05-03T02:03:05.576Z,2.13
2023-05-03T02:05:35.141Z,2.06
2023-05-03T02:08:04.644Z,2.11
2023-05-03T02:10:39.093Z,2.19
2023-05-03T02:13:08.645Z,2.32
2023-05-03T02:15:38.101Z,2.37
2023-05-03T02:18:08.773Z,2.33
2023-05-03T02:20:38.620Z,2.33
2023-05-03T02:23:08.089Z,2.41
2023-05-03T02:25:40.212Z,2.38
2023-05-03T02:28:15.889Z,2.52
2023-05-03T02:30:45.682Z,2.59
2023-05-03T02:33:15.367Z,2.66
2023-05-03T02:35:44.894Z,2.64
2023-05-03T02:38:14.821Z,2.63
2023-05-03T02:40:47.180Z,2.65
2023-05-03T02:43:16.647Z,2.76
2023-05-03T02:45:46.178Z,2.75
2023-05-03T02:48:16.717Z,2.91
2023-05-03T02:50:46.299Z,2.87
2023-05-03T02:53:15.875Z,2.94
2023-05-03T02:55:48.115Z,3.02
2023-05-03T02:58:17.997Z,3.13
2023-05-03T03:00:47.506Z,3.14
2023-05-03T03:03:17.103Z,3.12
2023-05-03T03:05:46.669Z,3.14
2023-05-03T03:08:16.394Z,3.28
2023-05-03T03:10:48.732Z,3.32
2023-05-03T03:13:18.286Z,3.15
2023-05-03T03:15:47.800Z,3.17
2023-05-03T03:18:18.362Z,2.97
2023-05-03T03:20:49.153Z,2.96
2023-05-03T03:23:18.668Z,3.41
2023-05-03T03:25:50.806Z,3.33
2023-05-03T03:28:20.335Z,3.29
2023-05-03T03:30:49.861Z,3.32
2023-05-03T03:33:19.381Z,3.25
2023-05-03T03:35:49.344Z,3.19
2023-05-03T03:38:18.792Z,3.18
2023-05-03T03:40:50.934Z,3.37
2023-05-03T03:43:20.475Z,3.44
2023-05-03T03:45:49.968Z,3.54
2023-05-03T03:48:19.600Z,3.86
2023-05-03T03:50:49.482Z,3.75
2023-05-03T03:53:18.963Z,3.48
2023-05-03T03:55:51.303Z,3.39
2023-05-03T03:58:20.850Z,3.78
2023-05-03T04:00:50.697Z,3.71
2023-05-03T04:03:20.391Z,3.60
2023-05-03T04:05:49.991Z,3.84
2023-05-03T04:08:19.462Z,3.88
2023-05-03T04:10:51.519Z,3.73
2023-05-03T04:13:21.076Z,3.76
2023-05-03T04:15:50.613Z,3.94
2023-05-03T04:18:20.110Z,3.97
2023-05-03T04:20:49.642Z,4.01
2023-05-03T04:23:19.160Z,4.14
2023-05-03T04:25:51.210Z,4.30
2023-05-03T04:28:20.722Z,4.24
2023-05-03T04:30:50.754Z,4.33
2023-05-03T04:33:20.262Z,4.25
2023-05-03T04:35:52.826Z,4.17
2023-05-03T04:38:22.394Z,4.22
2023-05-03T04:40:54.590Z,4.55
2023-05-03T04:43:24.049Z,4.48
2023-05-03T04:45:55.469Z,4.61
2023-05-03T04:48:24.945Z,4.59
2023-05-03T04:50:54.909Z,4.81
2023-05-03T04:53:24.484Z,4.92
2023-05-03T04:55:56.639Z,5.14
2023-05-03T04:58:28.861Z,5.01
2023-05-03T05:00:58.733Z,5.14
2023-05-03T05:03:28.476Z,4.72
2023-05-03T05:05:57.992Z,4.80
2023-05-03T05:08:27.708Z,4.89
2023-05-03T05:10:59.867Z,5.05
2023-05-03T05:13:29.403Z,4.91
2023-05-03T05:15:58.892Z,5.18
2023-05-03T05:18:28.449Z,5.39
2023-05-03T05:20:58.122Z,5.10
2023-05-03T05:23:27.979Z,5.04
2023-05-03T05:26:01.088Z,5.04
2023-05-03T05:28:30.861Z,4.99
2023-05-03T05:31:00.342Z,5.08
2023-05-03T05:33:29.870Z,5.57
2023-05-03T05:35:59.569Z,5.75
2023-05-03T05:38:29.105Z,5.68
2023-05-03T05:41:01.341Z,5.62
2023-05-03T05:43:30.980Z,5.57
2023-05-03T05:46:00.540Z,5.42
2023-05-03T05:48:30.776Z,5.81
2023-05-03T05:51:00.304Z,6.43
2023-05-03T05:53:29.946Z,6.06
2023-05-03T05:56:02.054Z,5.84
2023-05-03T05:58:31.551Z,5.96
2023-05-03T06:01:01.775Z,6.01
2023-05-03T06:03:31.867Z,6.15
2023-05-03T06:06:01.606Z,6.32
2023-05-03T06:08:31.488Z,6.14
2023-05-03T06:11:03.576Z,6.07
2023-05-03T06:13:34.756Z,6.14
2023-05-03T06:16:04.431Z,6.06
2023-05-03T06:18:33.953Z,6.10
2023-05-03T06:21:03.624Z,6.26
2023-05-03T06:23:33.591Z,6.27
2023-05-03T06:26:05.664Z,6.19
2023-05-03T06:28:35.212Z,6.33
2023-05-03T06:31:04.992Z,6.51
2023-05-03T06:33:34.552Z,6.53
2023-05-03T06:36:04.092Z,6.59
2023-05-03T06:38:33.560Z,6.71
2023-05-03T06:41:05.688Z,6.72
2023-05-03T06:43:35.164Z,6.69
2023-05-03T06:46:04.904Z,6.65
2023-05-03T06:48:34.462Z,6.73
2023-05-03T06:51:03.998Z,6.74
2023-05-03T06:53:33.502Z,6.79
2023-05-03T06:56:06.714Z,6.78
2023-05-03T06:58:36.284Z,6.74
2023-05-03T07:01:06.075Z,6.74
2023-05-03T07:03:35.878Z,6.76
2023-05-03T07:06:05.540Z,6.80
2023-05-03T07:08:35.068Z,6.87
2023-05-03T07:11:07.221Z,6.97
2023-05-03T07:13:36.768Z,7.10
2023-05-03T07:16:06.622Z,7.12
2023-05-03T07:18:36.211Z,7.18
2023-05-03T07:21:08.680Z,7.19
2023-05-03T07:23:38.929Z,7.20
2023-05-03T07:26:11.302Z,7.16
2023-05-03T07:28:40.815Z,7.27
2023-05-03T07:31:10.289Z,7.48
2023-05-03T07:33:40.128Z,7.49
2023-05-03T07:36:10.113Z,7.62
2023-05-03T07:38:39.576Z,7.52
2023-05-03T07:41:11.692Z,7.80
2023-05-03T07:43:41.665Z,7.73
2023-05-03T07:46:11.206Z,7.77
2023-05-03T07:48:40.751Z,7.84
2023-05-03T07:51:10.289Z,7.77
2023-05-03T07:53:40.491Z,7.47
2023-05-03T07:56:13.368Z,7.43
2023-05-03T07:58:45.005Z,7.53
2023-05-03T08:01:16.451Z,7.57
2023-05-03T08:03:46.243Z,7.81
2023-05-03T08:06:16.210Z,8.06
2023-05-03T08:08:45.721Z,8.33
2023-05-03T08:11:17.820Z,8.35
2023-05-03T08:13:47.317Z,8.26
2023-05-03T08:16:16.932Z,8.08
2023-05-03T08:18:46.928Z,7.90
2023-05-03T08:21:17.720Z,7.82
2023-05-03T08:23:47.447Z,7.90
2023-05-03T08:26:19.622Z,7.88
2023-05-03T08:28:49.149Z,8.03
2023-05-03T08:31:19.069Z,8.38
2023-05-03T08:33:48.586Z,8.69
2023-05-03T08:36:18.158Z,9.18
2023-05-03T08:38:47.668Z,9.11
2023-05-03T08:41:26.242Z,9.00
2023-05-03T08:43:57.575Z,9.07
2023-05-03T08:46:28.877Z,8.90
2023-05-03T08:48:58.907Z,8.90
2023-05-03T08:51:28.732Z,8.78
2023-05-03T08:53:58.242Z,8.66
2023-05-03T08:56:32.892Z,8.55
2023-05-03T08:59:07.940Z,8.63
2023-05-03T09:01:38.580Z,8.67
2023-05-03T09:04:08.896Z,8.64
2023-05-03T09:06:38.799Z,8.82
2023-05-03T09:09:10.790Z,8.85
2023-05-03T09:11:42.939Z,8.93
2023-05-03T09:14:13.764Z,8.93
2023-05-03T09:16:45.000Z,8.91
2023-05-03T09:19:15.251Z,8.97
2023-05-03T09:21:47.143Z,8.94
2023-05-03T09:24:17.533Z,9.19
2023-05-03T09:26:51.266Z,9.60
2023-05-03T09:29:31.785Z,9.19
2023-05-03T09:32:02.806Z,9.26
2023-05-03T09:34:32.573Z,9.34
2023-05-03T09:37:02.137Z,9.97
2023-05-03T09:39:31.726Z,9.80
2023-05-03T09:42:13.377Z,10.23
2023-05-03T09:44:44.627Z,10.53
2023-05-03T09:47:15.373Z,10.85
2023-05-03T09:49:44.869Z,10.19
2023-05-03T09:52:14.629Z,10.31
2023-05-03T09:54:47.603Z,10.13
2023-05-03T09:57:20.079Z,10.60
2023-05-03T09:59:50.876Z,10.64
2023-05-03T10:02:21.979Z,10.96
2023-05-03T10:04:57.080Z,10.66
2023-05-03T10:07:29.016Z,10.34
2023-05-03T10:09:59.436Z,9.96
2023-05-03T10:12:34.845Z,9.88
2023-05-03T10:15:06.270Z,9.66
2023-05-03T10:17:47.722Z,9.52
2023-05-03T10:20:24.328Z,9.53
2023-05-03T10:23:12.501Z,9.62
2023-05-03T10:25:43.446Z,9.69
2023-05-03T10:28:15.769Z,9.96
2023-05-03T10:30:46.706Z,10.15
2023-05-03T10:33:35.492Z,10.21
2023-05-03T10:36:10.846Z,10.21
2023-05-03T10:38:40.699Z,10.20
2023-05-03T10:41:10.492Z,10.72
2023-05-03T10:43:49.077Z,10.87
2023-05-03T10:46:39.431Z,10.94
2023-05-03T10:49:27.565Z,10.93
2023-05-03T10:51:58.751Z,10.82
2023-05-03T10:54:28.959Z,10.64
2023-05-03T10:57:00.411Z,10.48
2023-05-03T10:59:49.327Z,10.46
2023-05-03T11:02:19.942Z,10.74
2023-05-03T11:04:52.534Z,10.65
2023-05-03T11:07:22.961Z,10.48
2023-05-03T11:09:52.445Z,10.83
2023-05-03T11:12:22.043Z,11.38
2023-05-03T11:14:55.991Z,11.56
2023-05-03T11:17:29.355Z,11.21
2023-05-03T11:19:58.946Z,10.74
2023-05-03T11:22:28.492Z,10.81
2023-05-03T11:24:59.026Z,10.75
2023-05-03T11:27:28.723Z,10.82
2023-05-03T11:30:00.981Z,10.84
2023-05-03T11:32:31.601Z,11.16
2023-05-03T11:35:05.896Z,11.46
2023-05-03T11:37:35.626Z,11.65
2023-05-03T11:40:06.768Z,11.55
2023-05-03T11:42:36.822Z,11.70
2023-05-03T11:45:10.616Z,11.13
2023-05-03T11:47:40.642Z,11.26
2023-05-03T11:50:11.079Z,11.64
2023-05-03T11:52:41.798Z,11.70
2023-05-03T11:55:12.204Z,11.60
2023-05-03T11:57:42.292Z,11.43
2023-05-03T12:00:21.214Z,11.39
2023-05-03T12:02:51.605Z,11.65
2023-05-03T12:05:22.571Z,11.73
2023-05-03T12:07:53.368Z,11.57
2023-05-03T12:10:26.618Z,11.50
2023-05-03T12:12:59.753Z,11.76
2023-05-03T12:15:34.327Z,12.32
2023-05-03T12:18:05.846Z,12.40
2023-05-03T12:23:11.356Z,12.72
2023-05-03T12:25:44.463Z,12.67
2023-05-03T12:28:19.769Z,13.30
2023-05-03T12:30:53.528Z,12.67
2023-05-03T12:33:23.697Z,13.30
2023-05-03T12:35:54.521Z,12.95
2023-05-03T12:38:25.407Z,13.83
2023-05-03T12:40:56.200Z,14.36
2023-05-03T12:43:25.794Z,13.71
2023-05-03T12:46:25.217Z,14.38
2023-05-03T12:48:48.754Z,14.53
2023-05-03T12:51:20.493Z,13.87
2023-05-03T12:53:55.621Z,14.90
2023-05-03T12:56:26.053Z,14.69
2023-05-03T13:06:42.273Z,14.95
2023-05-03T13:09:19.849Z,14.45
2023-05-03T13:11:52.681Z,14.99
2023-05-03T13:14:22.501Z,15.06
2023-05-03T13:16:55.230Z,15.34
2023-05-03T13:19:25.122Z,14.79
2023-05-03T13:21:54.651Z,14.76
2023-05-03T13:24:24.347Z,14.07
2023-05-03T13:26:53.856Z,14.48
2023-05-03T13:29:24.290Z,15.11
2023-05-03T13:31:56.462Z,14.83
2023-05-03T13:34:26.390Z,15.52
2023-05-03T13:36:55.895Z,15.55
2023-05-03T13:39:25.888Z,16.15
2023-05-03T13:41:55.402Z,16.54
2023-05-03T13:44:26.320Z,15.50
2023-05-03T13:46:58.771Z,14.37
2023-05-03T13:49:28.610Z,14.25
2023-05-03T13:51:58.354Z,14.70
2023-05-03T13:54:28.718Z,14.92
2023-05-03T13:56:59.861Z,15.02
2023-05-03T13:59:29.348Z,15.19
2023-05-03T14:02:02.335Z,15.21
2023-05-03T14:04:32.027Z,15.02
2023-05-03T14:07:03.534Z,15.58
2023-05-03T14:09:33.241Z,15.58
2023-05-03T14:12:03.228Z,15.74
2023-05-03T14:14:32.766Z,15.75
2023-05-03T14:17:05.377Z,15.45
2023-05-03T14:19:38.108Z,15.72
2023-05-03T14:22:08.344Z,15.42
2023-05-03T14:24:38.143Z,15.03
2023-05-03T14:27:07.596Z,14.52
2023-05-03T14:29:37.183Z,14.12
2023-05-03T14:32:10.532Z,14.16
2023-05-03T14:34:40.076Z,13.85
2023-05-03T14:37:09.614Z,14.48
2023-05-03T14:39:39.286Z,14.40
2023-05-03T14:42:09.760Z,14.53
2023-05-03T14:44:39.575Z,14.30
2023-05-03T14:47:11.954Z,14.33
2023-05-03T14:49:43.164Z,14.05
2023-05-03T14:52:12.651Z,14.28
2023-05-03T14:54:42.173Z,14.70
2023-05-03T14:57:11.722Z,14.68
2023-05-03T14:59:41.379Z,15.01
2023-05-03T15:02:13.509Z,14.62
2023-05-03T15:04:43.354Z,14.54
2023-05-03T15:07:12.895Z,14.88
2023-05-03T15:09:42.350Z,14.69
2023-05-03T15:12:11.861Z,14.12
2023-05-03T15:14:41.598Z,14.50
2023-05-03T15:17:13.805Z,14.36
2023-05-03T15:19:43.821Z,14.24
2023-05-03T15:22:13.492Z,13.98
2023-05-03T15:24:43.062Z,14.04
2023-05-03T15:27:12.856Z,14.07
2023-05-03T15:29:43.553Z,13.41
2023-05-03T15:32:16.137Z,13.31
2023-05-03T15:34:45.692Z,13.19
2023-05-03T15:37:15.546Z,13.56
2023-05-03T15:39:45.062Z,13.53
2023-05-03T15:42:14.597Z,13.82
2023-05-03T15:44:46.998Z,14.12
2023-05-03T15:47:19.390Z,14.14
2023-05-03T15:49:50.929Z,13.99
2023-05-03T15:52:20.476Z,13.71
2023-05-03T15:54:49.967Z,14.22
2023-05-03T15:57:19.786Z,13.76
2023-05-03T15:59:49.587Z,13.66
2023-05-03T16:02:21.641Z,13.40
2023-05-03T16:04:52.049Z,13.58
2023-05-03T16:07:21.548Z,13.85
2023-05-03T16:09:51.148Z,13.74
2023-05-03T16:12:20.952Z,13.69
2023-05-03T16:14:50.513Z,13.40
2023-05-03T16:17:22.606Z,13.09
2023-05-03T16:19:52.166Z,13.18
2023-05-03T16:22:21.864Z,13.00
2023-05-03T16:24:51.889Z,12.96
2023-05-03T16:27:21.403Z,12.76
2023-05-03T16:29:51.641Z,12.67
2023-05-03T16:32:24.573Z,12.45
2023-05-03T16:34:54.130Z,12.71
2023-05-03T16:37:24.613Z,12.58
2023-05-03T16:39:54.577Z,12.27
2023-05-03T16:42:24.061Z,12.15
2023-05-03T16:44:53.712Z,12.19
2023-05-03T16:47:26.053Z,12.11
2023-05-03T16:49:57.873Z,11.98
2023-05-03T16:52:31.222Z,12.15
2023-05-03T16:55:00.828Z,12.10
2023-05-03T16:57:30.392Z,12.47
2023-05-03T17:00:04.989Z,12.46
2023-05-03T17:02:37.598Z,12.49
2023-05-03T17:05:08.418Z,12.59
2023-05-03T17:07:38.313Z,12.19
2023-05-03T17:10:09.214Z,11.98
2023-05-03T17:12:39.049Z,11.74
2023-05-03T17:15:10.255Z,11.59
2023-05-03T17:17:42.931Z,11.52
2023-05-03T17:20:13.796Z,11.42
2023-05-03T17:22:43.537Z,11.22
2023-05-03T17:25:15.434Z,11.17
2023-05-03T17:27:45.736Z,11.07
2023-05-03T17:30:16.759Z,10.98
2023-05-03T17:32:49.967Z,10.97
2023-05-03T17:35:19.708Z,10.83
2023-05-03T17:37:49.223Z,10.69
2023-05-03T17:40:18.826Z,10.74
2023-05-03T17:42:48.719Z,10.71
2023-05-03T17:45:19.492Z,10.65
2023-05-03T17:47:51.654Z,10.54
2023-05-03T17:50:21.661Z,10.44
2023-05-03T17:52:51.312Z,10.40
2023-05-03T17:55:20.875Z,10.46
2023-05-03T17:57:50.489Z,10.34
2023-05-03T18:00:22.574Z,10.32
2023-05-03T18:02:54.856Z,10.22
2023-05-03T18:05:24.432Z,10.20
2023-05-03T18:07:53.925Z,10.17
2023-05-03T18:10:23.751Z,10.17
2023-05-03T18:12:53.342Z,10.20
2023-05-03T18:15:23.584Z,10.01
2023-05-03T18:17:55.767Z,9.88
2023-05-03T18:20:25.315Z,9.80
2023-05-03T18:22:54.857Z,9.77
2023-05-03T18:25:24.487Z,9.64
2023-05-03T18:27:54.155Z,9.65
2023-05-03T18:30:23.698Z,9.57
2023-05-03T18:32:55.884Z,9.48
2023-05-03T18:35:25.540Z,9.40
2023-05-03T18:37:55.729Z,9.28
2023-05-03T18:40:25.282Z,9.24
2023-05-03T18:42:54.747Z,9.28
2023-05-03T18:45:25.372Z,9.30
2023-05-03T18:47:57.533Z,9.30
2023-05-03T18:50:27.317Z,9.10
2023-05-03T18:52:56.856Z,8.96
2023-05-03T18:55:26.409Z,8.90
2023-05-03T18:57:56.002Z,8.81
2023-05-03T19:00:25.902Z,8.82
2023-05-03T19:02:58.001Z,8.72
2023-05-03T19:05:27.664Z,8.71
2023-05-03T19:07:57.146Z,8.61
2023-05-03T19:10:27.428Z,8.50
2023-05-03T19:12:57.431Z,8.45
2023-05-03T19:15:27.251Z,8.43
2023-05-03T19:17:59.429Z,8.34
2023-05-03T19:20:28.995Z,8.33
2023-05-03T19:22:58.466Z,8.29
2023-05-03T19:25:28.069Z,8.36
2023-05-03T19:27:57.595Z,8.30
2023-05-03T19:30:27.153Z,8.23
2023-05-03T19:32:59.485Z,8.14
2023-05-03T19:35:29.082Z,8.04
2023-05-03T19:37:58.570Z,8.08
2023-05-03T19:40:28.066Z,7.96
2023-05-03T19:42:57.907Z,7.94
2023-05-03T19:45:27.882Z,7.83
2023-05-03T19:48:00.037Z,7.73
2023-05-03T19:50:29.574Z,7.68
2023-05-03T19:52:59.084Z,7.61
2023-05-03T19:55:28.661Z,7.64
2023-05-03T19:57:58.226Z,7.56
2023-05-03T20:00:28.600Z,7.53
2023-05-03T20:03:00.782Z,7.53
2023-05-03T20:05:31.125Z,7.45
2023-05-03T20:08:00.710Z,7.20
2023-05-03T20:10:35.531Z,7.20
2023-05-03T20:13:07.195Z,7.18
2023-05-03T20:15:38.318Z,7.14
2023-05-03T20:18:10.479Z,7.08
2023-05-03T20:20:40.034Z,7.01
2023-05-03T20:23:09.550Z,7.01
2023-05-03T20:25:39.144Z,6.96
2023-05-03T20:28:08.756Z,6.91
2023-05-03T20:30:38.399Z,6.92
2023-05-03T20:33:10.796Z,6.88
2023-05-03T20:35:40.797Z,6.94
2023-05-03T20:38:10.287Z,6.93
2023-05-03T20:40:40.029Z,6.94
2023-05-03T20:43:10.262Z,6.93
2023-05-03T20:45:39.780Z,6.87
2023-05-03T20:48:12.498Z,6.80
2023-05-03T20:50:42.065Z,6.72
2023-05-03T20:53:11.614Z,6.67
2023-05-03T20:55:41.349Z,6.72
2023-05-03T20:58:12.381Z,6.64
2023-05-03T21:00:41.947Z,6.70
2023-05-03T21:03:14.620Z,6.65
2023-05-03T21:05:44.204Z,6.61
2023-05-03T21:08:13.713Z,6.52
2023-05-03T21:10:43.219Z,6.54
2023-05-03T21:13:14.316Z,6.44
2023-05-03T21:15:43.953Z,6.37
2023-05-03T21:18:16.149Z,6.34
2023-05-03T21:20:45.714Z,6.38
2023-05-03T21:23:15.501Z,6.37
2023-05-03T21:25:45.034Z,6.38
2023-05-03T21:28:14.806Z,6.30
2023-05-03T21:30:48.322Z,6.17
2023-05-03T21:33:23.989Z,6.12
2023-05-03T21:35:53.608Z,6.12
2023-05-03T21:38:23.167Z,6.08
2023-05-03T21:40:52.892Z,6.03
2023-05-03T21:43:22.369Z,6.01
2023-05-03T21:45:52.329Z,5.96
2023-05-03T21:48:25.327Z,5.86
2023-05-03T21:50:54.884Z,5.88
2023-05-03T21:53:24.654Z,5.87
2023-05-03T21:55:54.128Z,5.82
2023-05-03T21:58:23.687Z,5.75
2023-05-03T22:00:53.698Z,5.72
2023-05-03T22:03:25.893Z,5.73
2023-05-03T22:05:55.381Z,5.66
2023-05-03T22:08:24.858Z,5.66
2023-05-03T22:10:56.262Z,5.61
2023-05-03T22:13:25.768Z,5.62
2023-05-03T22:15:55.309Z,5.58
2023-05-03T22:18:28.285Z,5.56
2023-05-03T22:20:57.985Z,5.51
2023-05-03T22:23:27.489Z,5.49
2023-05-03T22:25:57.018Z,5.42
2023-05-03T22:28:26.670Z,5.34
2023-05-03T22:30:56.726Z,5.24
2023-05-03T22:33:28.944Z,5.26
2023-05-03T22:35:58.644Z,5.23
2023-05-03T22:38:28.340Z,5.17
2023-05-03T22:40:57.849Z,5.13
2023-05-03T22:43:27.437Z,5.05
2023-05-03T22:45:56.993Z,5.08
2023-05-03T22:48:32.503Z,5.08
2023-05-03T22:51:02.708Z,5.06
2023-05-03T22:53:32.548Z,5.04
2023-05-03T22:56:04.491Z,5.01
2023-05-03T22:58:34.511Z,5.04
2023-05-03T23:01:04.732Z,5.06
2023-05-03T23:03:36.984Z,5.06
2023-05-03T23:06:07.068Z,5.03
2023-05-03T23:08:36.613Z,4.95
2023-05-03T23:11:06.272Z,4.90
2023-05-03T23:13:35.902Z,4.87
2023-05-03T23:16:05.696Z,4.91
2023-05-03T23:18:38.026Z,4.86
2023-05-03T23:21:07.534Z,4.86
2023-05-03T23:23:37.037Z,4.90
2023-05-03T23:26:06.699Z,4.86
2023-05-03T23:28:36.885Z,4.81
2023-05-03T23:31:07.195Z,4.81
2023-05-03T23:33:39.879Z,4.73
2023-05-03T23:36:10.123Z,4.70
2023-05-03T23:38:39.646Z,4.70
2023-05-03T23:41:09.216Z,4.70
2023-05-03T23:43:38.709Z,4.68
2023-05-03T23:46:08.432Z,4.63
2023-05-03T23:48:40.806Z,4.84
2023-05-03T23:51:10.445Z,4.85
2023-05-03T23:53:39.944Z,4.73
2023-05-03T23:56:09.911Z,4.62
2023-05-03T23:58:39.380Z,4.45
